Time;durP1;ratioP1;P1;durP2;ratioP2;P2;SDS_P1;SDS_P2;PMS_P1;PMS_P2;Temp;Humidity;BMP_temperature;BMP_pressure;BME280_temperature;BME280_humidity;BME280_pressure;Samples;Min_cycle;Max_cycle;Signal;HPM_P1;HPM_P2
2022/07/01 00:00:55;;;;;;;11.23;2.60;;;;;;;;;;5064748;28;20082;-63
2022/07/01 00:03:22;;;;;;;10.27;2.88;;;;;;;;;;5068248;28;20101;-63
2022/07/01 00:05:48;;;;;;;6.00;2.53;;;;;;;;;;5084884;28;20092;-62
2022/07/01 00:08:14;;;;;;;7.30;2.95;;;;;;;;;;5083686;28;20413;-63
2022/07/01 00:10:41;;;;;;;8.05;2.30;;;;;;;;;;5079825;28;20084;-61
2022/07/01 00:13:07;;;;;;;7.70;2.63;;;;;;;;;;5079876;28;20059;-61
2022/07/01 00:15:33;;;;;;;11.32;2.80;;;;;;;;;;5064505;28;20053;-61
2022/07/01 00:17:59;;;;;;;11.45;2.67;;;;;;;;;;5079359;28;20056;-61
2022/07/01 00:20:26;;;;;;;7.07;2.13;;;;;;;;;;5079669;28;20178;-61
2022/07/01 00:22:52;;;;;;;9.68;2.72;;;;;;;;;;5064307;28;20052;-61
2022/07/01 00:25:18;;;;;;;5.35;2.30;;;;;;;;;;5079964;28;20056;-61
2022/07/01 00:27:44;;;;;;;8.02;2.20;;;;;;;;;;5064332;28;20520;-61
2022/07/01 00:30:11;;;;;;;9.85;2.22;;;;;;;;;;5079813;28;20049;-61
2022/07/01 00:32:37;;;;;;;7.95;2.40;;;;;;;;;;5093585;28;20075;-61
2022/07/01 00:35:03;;;;;;;6.25;2.33;;;;;;;;;;5069282;28;20056;-61
2022/07/01 00:37:30;;;;;;;4.60;2.28;;;;;;;;;;5064127;28;20071;-61
2022/07/01 00:39:56;;;;;;;7.07;2.03;;;;;;;;;;5071649;28;20052;-61
2022/07/01 00:42:22;;;;;;;8.50;2.50;;;;;;;;;;5070826;28;20100;-62
2022/07/01 00:44:48;;;;;;;7.60;2.42;;;;;;;;;;5064146;28;20041;-61
2022/07/01 00:47:14;;;;;;;10.13;2.92;;;;;;;;;;5063827;28;20108;-62
2022/07/01 00:49:41;;;;;;;5.47;2.20;;;;;;;;;;5064026;28;20041;-62
2022/07/01 00:52:08;;;;;;;7.90;2.80;;;;;;;;;;5077309;28;20092;-61
2022/07/01 00:54:34;;;;;;;;;;;;;;;;;;5073046;28;20048;-62
2022/07/01 00:57:05;;;;;;;6.50;2.90;;;;;;;;;;5079976;28;19966;-61
2022/07/01 00:59:31;;;;;;;5.60;2.17;;;;;;;;;;5068237;28;20061;-61
2022/07/01 01:01:57;;;;;;;7.03;2.70;;;;;;;;;;5087623;28;20041;-61
2022/07/01 01:04:24;;;;;;;6.78;2.60;;;;;;;;;;5075152;28;20076;-61
2022/07/01 01:06:51;;;;;;;5.05;3.10;;;;;;;;;;5067657;28;20041;-61
2022/07/01 01:09:17;;;;;;;9.85;2.78;;;;;;;;;;5067671;28;20509;-61
2022/07/01 01:11:43;;;;;;;4.90;2.40;;;;;;;;;;5067521;28;20056;-61
2022/07/01 01:14:09;;;;;;;4.78;2.25;;;;;;;;;;5083293;28;20044;-61
2022/07/01 01:16:37;;;;;;;3.45;2.58;;;;;;;;;;5067179;28;20041;-61
2022/07/01 01:19:03;;;;;;;;;;;;;;;;;;5083620;28;20081;-61
2022/07/01 01:21:29;;;;;;;6.35;2.92;;;;;;;;;;5066216;28;19927;-61
2022/07/01 01:23:55;;;;;;;4.88;2.95;;;;;;;;;;5087610;28;20040;-60
2022/07/01 01:26:23;;;;;;;4.85;3.05;;;;;;;;;;5076050;28;20464;-63
2022/07/01 01:28:50;;;;;;;6.35;2.60;;;;;;;;;;5071116;28;20067;-60
2022/07/01 01:31:17;;;;;;;7.25;2.78;;;;;;;;;;5099312;28;20405;-60
2022/07/01 01:33:44;;;;;;;3.40;1.95;;;;;;;;;;5074527;28;20087;-60
2022/07/01 01:36:10;;;;;;;5.30;2.30;;;;;;;;;;5067364;28;20041;-60
2022/07/01 01:38:37;;;;;;;4.30;2.55;;;;;;;;;;5067182;28;20045;-60
2022/07/01 01:41:03;;;;;;;5.10;2.17;;;;;;;;;;5080977;28;20407;-60
2022/07/01 01:43:30;;;;;;;3.10;2.30;;;;;;;;;;5067294;28;20093;-60
2022/07/01 01:45:56;;;;;;;6.22;2.53;;;;;;;;;;5067186;28;20083;-60
2022/07/01 01:48:22;;;;;;;7.57;2.45;;;;;;;;;;5073455;28;20045;-60
2022/07/01 01:50:48;;;;;;;6.03;2.50;;;;;;;;;;5089988;28;20057;-60
2022/07/01 01:53:14;;;;;;;6.05;3.25;;;;;;;;;;5066758;28;20078;-60
2022/07/01 01:55:41;;;;;;;4.10;2.58;;;;;;;;;;5066820;28;20045;-61
2022/07/01 01:58:07;;;;;;;4.93;2.33;;;;;;;;;;5066822;28;20041;-61
2022/07/01 02:00:33;;;;;;;6.03;2.75;;;;;;;;;;5066700;28;20128;-60
2022/07/01 02:02:59;;;;;;;3.88;2.38;;;;;;;;;;5065112;28;20043;-61
2022/07/01 02:05:25;;;;;;;5.30;2.70;;;;;;;;;;5066759;28;20075;-61
2022/07/01 02:07:51;;;;;;;4.32;2.47;;;;;;;;;;5079909;28;20040;-60
2022/07/01 02:10:18;;;;;;;7.05;2.80;;;;;;;;;;5067275;28;20149;-61
2022/07/01 02:12:44;;;;;;;7.60;2.73;;;;;;;;;;5066750;28;20067;-61
2022/07/01 02:15:10;;;;;;;4.80;2.63;;;;;;;;;;5080544;28;20037;-61
2022/07/01 02:17:36;;;;;;;3.50;2.30;;;;;;;;;;5066076;28;20049;-61
2022/07/01 02:20:04;;;;;;;5.78;2.80;;;;;;;;;;5081971;28;20075;-61
2022/07/01 02:22:30;;;;;;;3.45;2.40;;;;;;;;;;5082156;28;20056;-61
2022/07/01 02:24:56;;;;;;;3.83;2.70;;;;;;;;;;5066379;28;20535;-60
2022/07/01 02:27:22;;;;;;;4.82;3.38;;;;;;;;;;5080545;28;20098;-61
2022/07/01 02:29:48;;;;;;;6.32;2.92;;;;;;;;;;5066619;28;20049;-61
2022/07/01 02:32:14;;;;;;;3.88;2.95;;;;;;;;;;5079666;28;20052;-61
2022/07/01 02:34:40;;;;;;;4.22;2.10;;;;;;;;;;5065995;28;20123;-60
2022/07/01 02:37:06;;;;;;;2.92;2.15;;;;;;;;;;5070619;28;20057;-62
2022/07/01 02:39:35;;;;;;;5.07;2.50;;;;;;;;;;5074715;28;20049;-60
2022/07/01 02:44:46;;;;;;;7.13;3.03;;;;;;;;;;5079479;28;20174;-60
2022/07/01 02:47:12;;;;;;;4.47;2.45;;;;;;;;;;5071327;28;20044;-61
2022/07/01 02:49:39;;;;;;;3.47;2.45;;;;;;;;;;5086133;28;20110;-62
2022/07/01 02:52:05;;;;;;;3.93;2.63;;;;;;;;;;5071454;28;20048;-62
2022/07/01 02:54:31;;;;;;;6.05;2.80;;;;;;;;;;5092296;28;20052;-62
2022/07/01 02:56:57;;;;;;;6.28;3.03;;;;;;;;;;5081133;28;20044;-62
2022/07/01 02:59:23;;;;;;;4.63;3.10;;;;;;;;;;5077053;28;20056;-61
2022/07/01 03:01:50;;;;;;;4.93;3.28;;;;;;;;;;5065108;28;20063;-61
2022/07/01 03:04:16;;;;;;;6.40;3.75;;;;;;;;;;5069794;28;20037;-61
2022/07/01 03:06:42;;;;;;;5.75;3.85;;;;;;;;;;5074038;28;20049;-62
2022/07/01 03:09:08;;;;;;;9.18;4.20;;;;;;;;;;5068898;28;20041;-61
2022/07/01 03:11:34;;;;;;;9.70;4.20;;;;;;;;;;5076472;28;20083;-61
2022/07/01 03:14:00;;;;;;;7.32;4.35;;;;;;;;;;5065061;28;20041;-61
2022/07/01 03:16:26;;;;;;;5.43;3.58;;;;;;;;;;5065223;28;20048;-60
2022/07/01 03:18:52;;;;;;;4.88;3.60;;;;;;;;;;5065120;28;20048;-61
2022/07/01 03:21:19;;;;;;;5.40;3.65;;;;;;;;;;5065072;28;20071;-61
2022/07/01 03:23:45;;;;;;;5.32;3.55;;;;;;;;;;5065044;28;20428;-61
2022/07/01 03:26:11;;;;;;;6.30;4.40;;;;;;;;;;5079215;28;20052;-61
2022/07/01 03:28:37;;;;;;;10.50;4.22;;;;;;;;;;5065039;28;20044;-61
2022/07/01 03:31:03;;;;;;;10.82;4.35;;;;;;;;;;5065159;28;20100;-61
2022/07/01 03:33:29;;;;;;;8.70;4.63;;;;;;;;;;5064621;28;20049;-61
2022/07/01 03:35:55;;;;;;;7.72;4.22;;;;;;;;;;5065218;28;20045;-61
2022/07/01 03:38:21;;;;;;;8.25;4.32;;;;;;;;;;5080456;28;20044;-61
2022/07/01 03:40:48;;;;;;;8.27;4.55;;;;;;;;;;5076626;28;20175;-61
2022/07/01 03:43:14;;;;;;;7.80;4.53;;;;;;;;;;5068503;28;20037;-61
2022/07/01 03:45:40;;;;;;;8.57;4.35;;;;;;;;;;5085023;28;20056;-61
2022/07/01 03:48:06;;;;;;;5.80;3.95;;;;;;;;;;5083156;28;20044;-61
2022/07/01 03:50:32;;;;;;;7.82;4.57;;;;;;;;;;5077992;28;20060;-61
2022/07/01 03:55:43;;;;;;;5.15;4.22;;;;;;;;;;5070841;28;20074;-60
2022/07/01 03:58:09;;;;;;;5.20;4.68;;;;;;;;;;5064639;28;20551;-62
2022/07/01 04:00:36;;;;;;;9.40;4.32;;;;;;;;;;5064555;28;20053;-61
2022/07/01 04:03:02;;;;;;;7.87;4.33;;;;;;;;;;5064271;28;20045;-60
2022/07/01 04:05:28;;;;;;;32.90;5.15;;;;;;;;;;5064467;28;20048;-60
2022/07/01 04:07:55;;;;;;;8.02;4.75;;;;;;;;;;5080143;28;20045;-60
2022/07/01 04:10:21;;;;;;;7.10;4.07;;;;;;;;;;5079698;28;20048;-61
2022/07/01 04:12:47;;;;;;;8.57;4.50;;;;;;;;;;5064616;28;20140;-60
2022/07/01 04:15:13;;;;;;;9.70;5.32;;;;;;;;;;5064625;28;20045;-61
2022/07/01 04:17:39;;;;;;;11.68;4.70;;;;;;;;;;5079705;28;20052;-60
2022/07/01 04:20:06;;;;;;;5.50;4.22;;;;;;;;;;5064517;28;20167;-61
2022/07/01 04:22:38;;;;;;;6.60;4.13;;;;;;;;;;5064407;28;20567;-62
2022/07/01 04:25:05;;;;;;;6.60;4.00;;;;;;;;;;5074824;28;20564;-62
2022/07/01 04:27:31;;;;;;;8.70;3.97;;;;;;;;;;5070235;28;20043;-62
2022/07/01 04:29:57;;;;;;;5.80;4.27;;;;;;;;;;5075026;28;20033;-62
2022/07/01 04:32:24;;;;;;;7.18;4.50;;;;;;;;;;5063570;28;20113;-62
2022/07/01 04:34:51;;;;;;;7.22;4.25;;;;;;;;;;5064355;28;20148;-62
2022/07/01 04:37:17;;;;;;;6.82;4.95;;;;;;;;;;5064336;28;20461;-62
2022/07/01 04:39:43;;;;;;;6.45;4.28;;;;;;;;;;5064137;28;20037;-62
2022/07/01 04:42:09;;;;;;;9.50;4.50;;;;;;;;;;5076032;28;20056;-62
2022/07/01 04:44:36;;;;;;;10.43;5.10;;;;;;;;;;5080546;28;20040;-62
2022/07/01 04:47:03;;;;;;;10.50;5.85;;;;;;;;;;5063632;28;20052;-62
2022/07/01 04:49:29;;;;;;;6.17;4.90;;;;;;;;;;5064460;28;20106;-62
2022/07/01 04:51:55;;;;;;;9.65;5.00;;;;;;;;;;5079633;28;20045;-61
2022/07/01 04:54:22;;;;;;;6.28;5.05;;;;;;;;;;5064024;28;20060;-62
2022/07/01 04:56:48;;;;;;;6.22;4.75;;;;;;;;;;5063982;28;20047;-62
2022/07/01 04:59:14;;;;;;;7.15;5.32;;;;;;;;;;5064137;28;20059;-62
2022/07/01 05:01:41;;;;;;;6.50;5.00;;;;;;;;;;5063887;28;20064;-62
2022/07/01 05:04:07;;;;;;;7.45;5.95;;;;;;;;;;5077516;28;20040;-62
2022/07/01 05:06:34;;;;;;;7.05;5.50;;;;;;;;;;5064106;28;20045;-62
2022/07/01 05:09:00;;;;;;;9.98;5.82;;;;;;;;;;5063909;28;20477;-62
2022/07/01 05:11:26;;;;;;;9.75;5.70;;;;;;;;;;5079400;28;20232;-61
2022/07/01 05:13:53;;;;;;;10.38;6.10;;;;;;;;;;5064029;28;20041;-62
2022/07/01 05:16:19;;;;;;;8.63;5.93;;;;;;;;;;5063992;28;20098;-62
2022/07/01 05:24:16;;;;;;;11.27;7.20;;;;;;;;;;5063851;28;20048;-62
2022/07/01 05:26:42;;;;;;;26.15;7.47;;;;;;;;;;5074321;28;20116;-62
2022/07/01 05:29:08;;;;;;;12.40;8.38;;;;;;;;;;5069806;28;20057;-62
2022/07/01 05:31:34;;;;;;;13.60;9.07;;;;;;;;;;5074930;28;20045;-62
2022/07/01 05:34:00;;;;;;;12.80;9.27;;;;;;;;;;5080796;28;20053;-62
2022/07/01 05:36:27;;;;;;;14.65;10.23;;;;;;;;;;5077660;28;20492;-62
2022/07/01 05:38:53;;;;;;;17.15;10.65;;;;;;;;;;5067638;28;20045;-62
2022/07/01 05:41:19;;;;;;;16.42;11.40;;;;;;;;;;5067131;28;20040;-62
2022/07/01 05:43:45;;;;;;;18.42;12.07;;;;;;;;;;5070941;28;20045;-62
2022/07/01 05:46:11;;;;;;;19.95;12.13;;;;;;;;;;5082812;28;20124;-62
2022/07/01 05:48:37;;;;;;;17.98;12.70;;;;;;;;;;5071212;28;20040;-61
2022/07/01 05:51:03;;;;;;;19.15;13.68;;;;;;;;;;5074970;28;20049;-62
2022/07/01 05:53:30;;;;;;;19.83;13.00;;;;;;;;;;5067004;28;20101;-61
2022/07/01 05:55:56;;;;;;;21.45;13.95;;;;;;;;;;5066931;28;20044;-62
2022/07/01 05:58:22;;;;;;;19.67;13.73;;;;;;;;;;5066693;28;20091;-62
2022/07/01 06:00:48;;;;;;;23.60;15.02;;;;;;;;;;5067039;28;20063;-62
2022/07/01 06:03:15;;;;;;;22.10;15.50;;;;;;;;;;5066073;28;20214;-62
2022/07/01 06:05:42;;;;;;;24.25;15.35;;;;;;;;;;5082301;28;20052;-62
2022/07/01 06:08:08;;;;;;;21.75;14.52;;;;;;;;;;5082359;28;20282;-62
2022/07/01 06:10:35;;;;;;;23.98;16.08;;;;;;;;;;5066640;28;20935;-62
2022/07/01 06:13:02;;;;;;;24.38;15.30;;;;;;;;;;5066848;28;20215;-62
2022/07/01 06:15:28;;;;;;;22.73;16.17;;;;;;;;;;5066745;28;20067;-62
2022/07/01 06:17:54;;;;;;;23.85;15.98;;;;;;;;;;5066086;28;20037;-62
2022/07/01 06:20:20;;;;;;;23.38;15.57;;;;;;;;;;5066523;28;20037;-61
2022/07/01 06:22:46;;;;;;;17.90;13.95;;;;;;;;;;5066586;28;20405;-61
2022/07/01 06:25:12;;;;;;;21.02;14.98;;;;;;;;;;5077624;28;20044;-62
2022/07/01 06:27:43;;;;;;;20.90;14.63;;;;;;;;;;5082080;28;20052;-61
2022/07/01 06:30:09;;;;;;;22.73;14.40;;;;;;;;;;5066791;28;20045;-62
2022/07/01 06:32:36;;;;;;;17.48;12.98;;;;;;;;;;5068754;28;20063;-62
2022/07/01 06:35:02;;;;;;;20.92;15.20;;;;;;;;;;5077279;28;20132;-62
2022/07/01 06:37:28;;;;;;;17.77;13.18;;;;;;;;;;5081322;28;20037;-61
2022/07/01 06:39:54;;;;;;;20.30;14.57;;;;;;;;;;5078966;28;20044;-61
2022/07/01 06:42:21;;;;;;;22.92;15.00;;;;;;;;;;5066289;28;20202;-61
2022/07/01 06:44:47;;;;;;;21.92;14.60;;;;;;;;;;5080450;28;20044;-60
2022/07/01 06:47:14;;;;;;;22.92;14.73;;;;;;;;;;5065569;28;20067;-61
2022/07/01 06:49:40;;;;;;;27.42;15.93;;;;;;;;;;5079117;28;20040;-61
2022/07/01 06:52:06;;;;;;;18.85;15.38;;;;;;;;;;5066105;28;20045;-60
2022/07/01 06:54:35;;;;;;;22.30;15.68;;;;;;;;;;5065733;28;20041;-61
2022/07/01 06:57:01;;;;;;;26.10;15.05;;;;;;;;;;5081311;28;20048;-61
2022/07/01 06:59:28;;;;;;;21.80;15.57;;;;;;;;;;5065767;28;20049;-61
2022/07/01 07:01:54;;;;;;;18.70;13.10;;;;;;;;;;5065131;28;20053;-61
2022/07/01 07:04:20;;;;;;;18.73;13.25;;;;;;;;;;5081304;28;20167;-61
2022/07/01 07:06:47;;;;;;;20.92;12.88;;;;;;;;;;5066075;28;20049;-61
2022/07/01 07:09:13;;;;;;;21.63;14.20;;;;;;;;;;5079062;28;20059;-61
2022/07/01 07:11:39;;;;;;;21.05;14.98;;;;;;;;;;5065304;28;20087;-61
2022/07/01 07:14:05;;;;;;;22.65;15.13;;;;;;;;;;5084420;28;20032;-61
2022/07/01 07:16:31;;;;;;;21.13;15.18;;;;;;;;;;5074172;28;20397;-61
2022/07/01 07:18:58;;;;;;;17.42;13.45;;;;;;;;;;5065505;28;20049;-61
2022/07/01 07:21:24;;;;;;;21.70;13.82;;;;;;;;;;5065507;28;20128;-61
2022/07/01 07:23:50;;;;;;;19.35;15.88;;;;;;;;;;5065242;28;20045;-61
2022/07/01 07:26:16;;;;;;;21.77;16.33;;;;;;;;;;5065344;28;20059;-61
2022/07/01 07:28:42;;;;;;;20.65;16.23;;;;;;;;;;5093823;28;20045;-61
2022/07/01 07:31:08;;;;;;;21.08;13.50;;;;;;;;;;5071106;28;20051;-61
2022/07/01 07:33:34;;;;;;;21.35;15.05;;;;;;;;;;5073429;28;20076;-61
2022/07/01 07:36:00;;;;;;;20.92;15.02;;;;;;;;;;5065094;28;20063;-62
2022/07/01 07:38:27;;;;;;;30.30;15.73;;;;;;;;;;5065130;28;20104;-61
2022/07/01 07:40:53;;;;;;;22.48;16.13;;;;;;;;;;5080190;28;20049;-61
2022/07/01 07:43:19;;;;;;;19.17;15.35;;;;;;;;;;5083880;28;20040;-61
2022/07/01 07:45:45;;;;;;;26.63;16.23;;;;;;;;;;5075544;28;20044;-61
2022/07/01 07:48:11;;;;;;;20.13;16.73;;;;;;;;;;5064327;28;20063;-61
2022/07/01 07:50:37;;;;;;;20.27;16.52;;;;;;;;;;5064938;28;20096;-61
2022/07/01 07:53:03;;;;;;;22.00;15.68;;;;;;;;;;5065162;28;20043;-62
2022/07/01 07:55:29;;;;;;;24.13;17.80;;;;;;;;;;5080272;28;20122;-61
2022/07/01 07:57:55;;;;;;;20.13;15.68;;;;;;;;;;5076344;28;20045;-62
2022/07/01 08:00:21;;;;;;;18.58;13.02;;;;;;;;;;5066077;28;20068;-62
2022/07/01 08:02:48;;;;;;;20.40;14.85;;;;;;;;;;5064399;28;20127;-62
2022/07/01 08:05:14;;;;;;;17.67;13.85;;;;;;;;;;5090007;28;20040;-62
2022/07/01 08:07:41;;;;;;;18.02;13.05;;;;;;;;;;5064522;28;20052;-62
2022/07/01 08:10:09;;;;;;;21.15;14.13;;;;;;;;;;5064571;28;20123;-62
2022/07/01 08:12:35;;;;;;;;;;;;;;;;;;5065177;28;20037;-62
2022/07/01 08:15:01;;;;;;;19.75;13.48;;;;;;;;;;5064631;28;20003;-62
2022/07/01 08:17:27;;;;;;;14.82;12.60;;;;;;;;;;5063813;28;20044;-62
2022/07/01 08:19:53;;;;;;;14.80;12.38;;;;;;;;;;5064382;28;20048;-62
2022/07/01 08:22:20;;;;;;;19.35;13.20;;;;;;;;;;5064605;28;20091;-62
2022/07/01 08:24:46;;;;;;;17.73;12.38;;;;;;;;;;5064441;28;20052;-63
2022/07/01 08:27:12;;;;;;;16.92;11.43;;;;;;;;;;5064366;28;20045;-62
2022/07/01 08:29:39;;;;;;;15.43;12.50;;;;;;;;;;5064374;28;20057;-62
2022/07/01 08:32:05;;;;;;;16.25;11.38;;;;;;;;;;5063935;28;20049;-62
2022/07/01 08:34:31;;;;;;;17.60;10.98;;;;;;;;;;5064182;28;20047;-62
2022/07/01 08:36:57;;;;;;;16.60;10.32;;;;;;;;;;5064316;28;20101;-62
2022/07/01 08:39:23;;;;;;;14.98;10.10;;;;;;;;;;5067011;28;20037;-62
2022/07/01 08:41:50;;;;;;;13.65;9.30;;;;;;;;;;5075171;28;20033;-62
2022/07/01 08:44:16;;;;;;;13.45;8.55;;;;;;;;;;5075367;28;20496;-62
2022/07/01 08:46:42;;;;;;;12.05;8.10;;;;;;;;;;5066376;28;20037;-62
2022/07/01 08:49:08;;;;;;;16.23;8.02;;;;;;;;;;5064395;28;20063;-62
2022/07/01 08:51:34;;;;;;;14.98;7.85;;;;;;;;;;5064151;28;20045;-62
2022/07/01 08:54:00;;;;;;;11.52;6.53;;;;;;;;;;5066457;28;20493;-62
2022/07/01 08:56:41;;;;;;;13.77;6.60;;;;;;;;;;5070638;28;20041;-62
2022/07/01 08:59:09;;;;;;;10.93;6.68;;;;;;;;;;5064306;28;20064;-62
2022/07/01 09:01:35;;;;;;;;;;;;;;;;;;5064019;28;20056;-62
2022/07/01 09:04:15;;;;;;;9.27;4.75;;;;;;;;;;5063926;28;19920;-62
2022/07/01 09:06:41;;;;;;;12.85;4.72;;;;;;;;;;5063886;28;20056;-62
2022/07/01 09:09:14;;;;;;;8.82;4.78;;;;;;;;;;5069834;28;20037;-62
2022/07/01 09:11:44;;;;;;;6.85;3.38;;;;;;;;;;5072025;28;20053;-62
2022/07/01 09:14:12;;;;;;;6.38;3.70;;;;;;;;;;5082043;28;20047;-62
2022/07/01 09:16:41;;;;;;;11.55;4.30;;;;;;;;;;5067214;28;20037;-62
2022/07/01 09:19:08;;;;;;;9.65;3.70;;;;;;;;;;5068052;28;20041;-62
2022/07/01 09:21:34;;;;;;;7.90;3.80;;;;;;;;;;5083119;28;20059;-62
2022/07/01 09:24:04;;;;;;;10.00;3.45;;;;;;;;;;5081771;28;20064;-61
2022/07/01 09:26:31;;;;;;;5.40;4.13;;;;;;;;;;5067465;28;20139;-61
2022/07/01 09:28:57;;;;;;;9.90;3.83;;;;;;;;;;5067518;28;20451;-62
2022/07/01 09:31:32;;;;;;;8.20;3.85;;;;;;;;;;5067659;28;20102;-61
2022/07/01 09:34:08;;;;;;;8.27;4.03;;;;;;;;;;5081567;28;20104;-62
2022/07/01 09:36:40;;;;;;;9.07;4.38;;;;;;;;;;5075008;28;20106;-61
2022/07/01 09:39:06;;;;;;;8.77;4.15;;;;;;;;;;5072813;28;20052;-61
2022/07/01 09:41:38;;;;;;;5.38;3.42;;;;;;;;;;5067119;28;20084;-61
2022/07/01 09:44:05;;;;;;;8.73;4.30;;;;;;;;;;5080715;28;20135;-61
2022/07/01 09:46:32;;;;;;;9.23;4.10;;;;;;;;;;5070892;28;20141;-61
2022/07/01 09:48:59;;;;;;;11.27;3.63;;;;;;;;;;5067263;28;20055;-62
2022/07/01 09:51:25;;;;;;;6.85;3.60;;;;;;;;;;5067189;28;20088;-62
2022/07/01 09:53:51;;;;;;;10.20;4.68;;;;;;;;;;5073413;28;20462;-62
2022/07/01 09:56:17;;;;;;;7.80;3.88;;;;;;;;;;5074976;28;20049;-62
2022/07/01 09:58:43;;;;;;;4.10;2.47;;;;;;;;;;5066620;28;20041;-62
2022/07/01 10:01:10;;;;;;;5.95;2.10;;;;;;;;;;5066971;28;20081;-61
2022/07/01 10:03:38;;;;;;;6.03;2.45;;;;;;;;;;5080285;28;20519;-61
2022/07/01 10:06:07;;;;;;;4.43;2.08;;;;;;;;;;5066920;28;20056;-61
2022/07/01 10:08:46;;;;;;;5.95;2.25;;;;;;;;;;5066589;28;20041;-61
2022/07/01 10:11:15;;;;;;;7.95;2.08;;;;;;;;;;5066683;28;20045;-61
2022/07/01 10:13:42;;;;;;;3.78;2.05;;;;;;;;;;5066498;28;20274;-62
2022/07/01 10:16:09;;;;;;;7.57;2.60;;;;;;;;;;5066825;28;20041;-63
2022/07/01 10:18:35;;;;;;;3.67;2.20;;;;;;;;;;5066189;28;20489;-63
2022/07/01 10:21:03;;;;;;;7.87;3.03;;;;;;;;;;5066483;28;20051;-62
2022/07/01 10:23:37;;;;;;;6.68;3.40;;;;;;;;;;5065503;28;20496;-62
2022/07/01 10:26:05;;;;;;;8.00;3.38;;;;;;;;;;5066607;28;20048;-62
2022/07/01 10:28:43;;;;;;;9.15;2.75;;;;;;;;;;5066607;28;20067;-63
2022/07/01 10:31:15;;;;;;;7.00;2.83;;;;;;;;;;5066517;28;20088;-62
2022/07/01 10:33:43;;;;;;;9.70;3.45;;;;;;;;;;5067452;28;20115;-62
2022/07/01 10:36:11;;;;;;;11.15;2.55;;;;;;;;;;5072094;28;20040;-62
2022/07/01 10:38:56;;;;;;;5.70;2.45;;;;;;;;;;5086172;28;20099;-62
2022/07/01 10:41:23;;;;;;;5.63;2.58;;;;;;;;;;5066607;28;20497;-63
2022/07/01 10:43:49;;;;;;;9.30;2.50;;;;;;;;;;5089020;28;20106;-63
2022/07/01 10:46:34;;;;;;;4.18;2.42;;;;;;;;;;5072633;28;20068;-62
2022/07/01 10:49:00;;;;;;;7.10;3.03;;;;;;;;;;5081463;28;20108;-63
2022/07/01 10:51:59;;;;;;;9.30;2.88;;;;;;;;;;5066201;28;20049;-63
2022/07/01 10:54:40;;;;;;;10.07;2.90;;;;;;;;;;5063430;28;20089;-63
2022/07/01 10:57:18;;;;;;;9.13;2.95;;;;;;;;;;5046527;28;20045;-62
2022/07/01 10:59:48;;;;;;;10.95;3.55;;;;;;;;;;5063135;28;20060;-63
2022/07/01 11:02:28;;;;;;;5.13;3.03;;;;;;;;;;5062701;28;20601;-63
2022/07/01 11:04:55;;;;;;;6.55;2.40;;;;;;;;;;5063166;28;20179;-63
2022/07/01 11:07:24;;;;;;;6.60;3.00;;;;;;;;;;5063108;28;20139;-61
2022/07/01 11:09:50;;;;;;;6.35;2.67;;;;;;;;;;5062886;28;20075;-63
2022/07/01 11:12:17;;;;;;;3.50;2.13;;;;;;;;;;5063002;28;20045;-63
2022/07/01 11:14:43;;;;;;;4.75;2.30;;;;;;;;;;5063121;28;20053;-64
2022/07/01 11:17:10;;;;;;;3.33;1.53;;;;;;;;;;5062472;28;20116;-64
2022/07/01 11:19:36;;;;;;;2.83;0.90;;;;;;;;;;5063111;28;20048;-63
2022/07/01 11:22:03;;;;;;;6.77;1.53;;;;;;;;;;5062723;28;20163;-64
2022/07/01 11:24:29;;;;;;;6.47;1.23;;;;;;;;;;5062949;28;20288;-61
2022/07/01 11:27:00;;;;;;;3.50;0.80;;;;;;;;;;5062862;28;20041;-62
2022/07/01 11:29:28;;;;;;;5.38;1.10;;;;;;;;;;5063810;28;20093;-62
2022/07/01 11:31:54;;;;;;;4.07;0.90;;;;;;;;;;5064854;28;20096;-62
2022/07/01 11:34:21;;;;;;;2.03;0.63;;;;;;;;;;5064950;28;20053;-64
2022/07/01 11:39:34;;;;;;;2.20;0.70;;;;;;;;;;5079381;28;20045;-61
2022/07/01 11:42:02;;;;;;;3.15;0.95;;;;;;;;;;5064795;28;20049;-62
2022/07/01 11:44:29;;;;;;;2.35;0.93;;;;;;;;;;5077916;28;20149;-62
2022/07/01 11:46:55;;;;;;;3.65;1.23;;;;;;;;;;5079371;28;20048;-62
2022/07/01 11:49:23;;;;;;;4.35;0.85;;;;;;;;;;5065161;28;20108;-63
2022/07/01 11:51:49;;;;;;;;;;;;;;;;;;5065375;28;20162;-63
2022/07/01 11:54:22;;;;;;;2.83;1.02;;;;;;;;;;5064955;28;20322;-63
2022/07/01 11:56:48;;;;;;;2.92;1.38;;;;;;;;;;5064503;28;20061;-63
2022/07/01 11:59:14;;;;;;;3.67;1.27;;;;;;;;;;5064929;28;20190;-63
2022/07/01 12:01:41;;;;;;;4.95;1.30;;;;;;;;;;5064206;28;20052;-63
2022/07/01 12:04:08;;;;;;;4.28;1.40;;;;;;;;;;5080135;28;20045;-63
2022/07/01 12:06:35;;;;;;;3.03;1.13;;;;;;;;;;5080224;28;20080;-63
2022/07/01 12:09:02;;;;;;;5.82;1.50;;;;;;;;;;5064519;28;20102;-62
2022/07/01 12:11:28;;;;;;;4.07;1.35;;;;;;;;;;5064314;28;20049;-63
2022/07/01 12:13:56;;;;;;;2.70;1.15;;;;;;;;;;5077239;28;20126;-63
2022/07/01 12:16:22;;;;;;;3.90;1.15;;;;;;;;;;5080241;28;20472;-63
2022/07/01 12:18:52;;;;;;;5.00;1.77;;;;;;;;;;5063777;28;20052;-63
2022/07/01 12:21:18;;;;;;;4.78;1.35;;;;;;;;;;5064480;28;20056;-63
2022/07/01 12:24:02;;;;;;;2.72;0.93;;;;;;;;;;5064273;28;20074;-62
2022/07/01 12:26:28;;;;;;;4.25;0.98;;;;;;;;;;5072962;28;20088;-65
2022/07/01 12:28:55;;;;;;;2.75;1.20;;;;;;;;;;5069865;28;20045;-62
2022/07/01 12:31:21;;;;;;;4.75;1.55;;;;;;;;;;5064386;28;20120;-62
2022/07/01 12:33:51;;;;;;;2.33;0.88;;;;;;;;;;5079284;28;20045;-62
2022/07/01 12:36:17;;;;;;;6.05;1.13;;;;;;;;;;5064186;28;20414;-62
2022/07/01 12:38:43;;;;;;;5.65;1.20;;;;;;;;;;5064313;28;20055;-62
2022/07/01 12:41:29;;;;;;;8.55;1.75;;;;;;;;;;5064193;28;20115;-62
2022/07/01 12:43:55;;;;;;;5.05;1.35;;;;;;;;;;5076535;28;20044;-62
2022/07/01 12:46:28;;;;;;;3.25;1.13;;;;;;;;;;5070444;28;20044;-63
2022/07/01 12:48:54;;;;;;;4.60;1.27;;;;;;;;;;5068144;28;20045;-62
2022/07/01 12:51:20;;;;;;;6.18;1.17;;;;;;;;;;5068524;28;20040;-63
2022/07/01 12:53:46;;;;;;;3.70;0.80;;;;;;;;;;5083648;28;20298;-63
2022/07/01 12:56:23;;;;;;;5.38;1.50;;;;;;;;;;5068098;28;20080;-63
2022/07/01 12:58:52;;;;;;;3.17;1.17;;;;;;;;;;5084344;28;20106;-63
2022/07/01 13:01:18;;;;;;;6.85;1.00;;;;;;;;;;5088097;28;20053;-63
2022/07/01 13:03:45;;;;;;;3.43;1.13;;;;;;;;;;5075040;28;20063;-63
2022/07/01 13:06:11;;;;;;;4.60;1.30;;;;;;;;;;5103751;28;20302;-63
2022/07/01 13:08:37;;;;;;;4.43;1.08;;;;;;;;;;5092794;28;20137;-63
2022/07/01 13:11:03;;;;;;;6.68;1.17;;;;;;;;;;5083386;28;20044;-63
2022/07/01 13:13:29;;;;;;;4.03;1.10;;;;;;;;;;5067994;28;20044;-63
2022/07/01 13:15:55;;;;;;;2.60;0.68;;;;;;;;;;5073330;28;20503;-63
2022/07/01 13:18:21;;;;;;;3.70;0.80;;;;;;;;;;5075358;28;20128;-63
2022/07/01 13:20:48;;;;;;;2.70;1.02;;;;;;;;;;5071558;28;20041;-63
2022/07/01 13:23:14;;;;;;;3.78;0.90;;;;;;;;;;5078029;28;20033;-63
2022/07/01 13:25:41;;;;;;;4.38;0.82;;;;;;;;;;5082975;28;20460;-63
2022/07/01 13:28:07;;;;;;;3.30;1.03;;;;;;;;;;5075784;28;20044;-64
2022/07/01 13:30:35;;;;;;;5.65;1.38;;;;;;;;;;5073261;28;20044;-63
2022/07/01 13:33:01;;;;;;;5.93;1.02;;;;;;;;;;5067212;28;20049;-63
2022/07/01 13:35:27;;;;;;;4.60;1.00;;;;;;;;;;5080233;28;20052;-64
2022/07/01 13:37:54;;;;;;;4.03;0.70;;;;;;;;;;5068394;28;20041;-64
2022/07/01 13:40:22;;;;;;;6.47;1.30;;;;;;;;;;5082647;28;20049;-64
2022/07/01 13:42:48;;;;;;;2.70;0.80;;;;;;;;;;5067132;28;20045;-64
2022/07/01 13:45:14;;;;;;;9.43;1.00;;;;;;;;;;5081491;28;20120;-63
2022/07/01 13:47:40;;;;;;;4.10;0.90;;;;;;;;;;5082311;28;20052;-63
2022/07/01 13:50:07;;;;;;;3.75;0.70;;;;;;;;;;5082509;28;20041;-64
2022/07/01 13:52:33;;;;;;;6.07;1.13;;;;;;;;;;5082542;28;20048;-64
2022/07/01 13:55:02;;;;;;;4.78;0.70;;;;;;;;;;5082742;28;20163;-64
2022/07/01 13:57:28;;;;;;;5.00;0.90;;;;;;;;;;5066962;28;20052;-64
2022/07/01 13:59:56;;;;;;;3.08;0.80;;;;;;;;;;5066809;28;20064;-64
2022/07/01 14:02:22;;;;;;;7.63;1.50;;;;;;;;;;5066264;28;20056;-64
2022/07/01 14:04:49;;;;;;;3.88;1.00;;;;;;;;;;5082399;28;20117;-64
2022/07/01 14:07:15;;;;;;;3.30;0.57;;;;;;;;;;5066731;28;20048;-64
2022/07/01 14:09:43;;;;;;;5.15;0.80;;;;;;;;;;5066678;28;20045;-64
2022/07/01 14:12:09;;;;;;;2.78;0.63;;;;;;;;;;5069374;28;20412;-64
2022/07/01 14:14:35;;;;;;;9.05;1.23;;;;;;;;;;5076665;28;20060;-64
2022/07/01 14:17:02;;;;;;;3.60;1.05;;;;;;;;;;5081492;28;20113;-64
2022/07/01 14:19:28;;;;;;;2.23;1.00;;;;;;;;;;5066687;28;20109;-65
2022/07/01 14:21:54;;;;;;;7.15;1.17;;;;;;;;;;5081749;28;20520;-64
2022/07/01 14:24:21;;;;;;;3.20;0.77;;;;;;;;;;5066375;28;20045;-64
2022/07/01 14:26:47;;;;;;;6.35;1.00;;;;;;;;;;5066397;28;20076;-65
2022/07/01 14:29:14;;;;;;;3.75;0.77;;;;;;;;;;5081805;28;20045;-64
2022/07/01 14:31:40;;;;;;;6.13;1.13;;;;;;;;;;5081551;28;20053;-65
2022/07/01 14:34:06;;;;;;;3.15;0.85;;;;;;;;;;5066240;28;20096;-64
2022/07/01 14:36:32;;;;;;;3.95;0.85;;;;;;;;;;5081726;28;20047;-65
2022/07/01 14:38:58;;;;;;;2.53;0.73;;;;;;;;;;5066604;28;20048;-64
2022/07/01 14:41:24;;;;;;;7.20;1.35;;;;;;;;;;5071512;28;20108;-64
2022/07/01 14:43:51;;;;;;;3.37;1.00;;;;;;;;;;5082191;28;20572;-65
2022/07/01 14:46:17;;;;;;;4.78;1.02;;;;;;;;;;5086429;28;20074;-64
2022/07/01 14:48:43;;;;;;;4.38;0.80;;;;;;;;;;5065701;28;20047;-64
2022/07/01 14:51:09;;;;;;;5.60;0.75;;;;;;;;;;5066127;28;20104;-64